Time;durP1;ratioP1;P1;durP2;ratioP2;P2;SDS_P1;SDS_P2;PMS_P1;PMS_P2;Temp;Humidity;BMP_temperature;BMP_pressure;BME280_temperature;BME280_humidity;BME280_pressure;Samples;Min_cycle;Max_cycle;Signal;HPM_P1;HPM_P2
2023/07/26 00:00:49;;;;;;;3.92;2.85;;;15.80;87.00;;;;;;4975098;28;20038;-62
2023/07/26 00:03:14;;;;;;;3.22;2.92;;;15.70;87.00;;;;;;4975721;28;20039;-61
2023/07/26 00:05:40;;;;;;;3.13;2.58;;;15.70;87.10;;;;;;4975375;28;20035;-62
2023/07/26 00:08:05;;;;;;;3.10;2.83;;;15.70;87.30;;;;;;4977687;28;20580;-63
2023/07/26 00:10:31;;;;;;;4.88;3.08;;;15.70;87.40;;;;;;4973353;28;20486;-62
2023/07/26 00:12:57;;;;;;;4.50;3.45;;;15.70;87.40;;;;;;4973818;28;20501;-62
2023/07/26 00:15:22;;;;;;;3.30;2.92;;;15.70;87.40;;;;;;4972116;28;20763;-61
2023/07/26 00:17:48;;;;;;;3.13;2.80;;;15.70;87.40;;;;;;4973498;28;20104;-63
2023/07/26 00:20:13;;;;;;;3.58;3.15;;;15.60;87.30;;;;;;4972980;28;20204;-61
2023/07/26 00:22:39;;;;;;;3.67;3.25;;;15.60;87.50;;;;;;4971003;28;20042;-61
2023/07/26 00:25:05;;;;;;;2.95;2.75;;;15.60;87.60;;;;;;4968411;28;20056;-62
2023/07/26 00:27:30;;;;;;;3.35;3.05;;;15.60;87.60;;;;;;4969832;28;20031;-62
2023/07/26 00:29:56;;;;;;;5.35;3.90;;;15.60;87.50;;;;;;4972299;28;20049;-62
2023/07/26 00:32:22;;;;;;;4.93;4.20;;;15.60;87.60;;;;;;4974508;28;20132;-61
2023/07/26 00:34:47;;;;;;;5.60;4.32;;;15.60;87.60;;;;;;4969442;28;20058;-62
2023/07/26 00:37:13;;;;;;;6.25;4.80;;;15.60;87.40;;;;;;4972996;28;20038;-62
2023/07/26 00:39:39;;;;;;;11.48;4.90;;;15.60;87.40;;;;;;4972591;28;20050;-62
2023/07/26 00:42:05;;;;;;;6.22;4.97;;;15.60;87.30;;;;;;4972651;28;20034;-62
2023/07/26 00:44:30;;;;;;;5.15;4.70;;;15.50;87.30;;;;;;4973001;28;20038;-62
2023/07/26 00:46:56;;;;;;;7.30;5.60;;;15.60;87.60;;;;;;4971056;28;20137;-62
2023/07/26 00:49:22;;;;;;;5.90;5.30;;;15.50;87.60;;;;;;4971938;28;20582;-60
2023/07/26 00:51:47;;;;;;;6.18;4.88;;;15.60;87.60;;;;;;4973127;28;20597;-62
2023/07/26 00:54:13;;;;;;;5.10;4.70;;;15.60;87.80;;;;;;4972113;28;20093;-62
2023/07/26 00:56:38;;;;;;;5.63;5.03;;;15.70;87.80;;;;;;4970189;28;20498;-62
2023/07/26 00:59:04;;;;;;;5.28;4.80;;;15.70;87.60;;;;;;4970775;28;20039;-61
2023/07/26 01:01:30;;;;;;;5.43;4.90;;;15.70;87.40;;;;;;4972154;28;20034;-63
2023/07/26 01:03:55;;;;;;;5.80;5.10;;;15.70;87.40;;;;;;4974315;28;20185;-62
2023/07/26 01:06:55;;;;;;;5.38;4.90;;;15.80;87.40;;;;;;4974832;28;20046;-62
2023/07/26 01:09:51;;;;;;;5.32;4.88;;;15.80;87.60;;;;;;4977056;28;20114;-62
2023/07/26 01:12:22;;;;;;;5.28;4.78;;;15.90;87.40;;;;;;4979185;28;20062;-62
2023/07/26 01:15:02;;;;;;;5.82;5.22;;;15.90;87.90;;;;;;4974436;28;20053;-62
2023/07/26 01:17:29;;;;;;;5.43;4.93;;;15.90;87.00;;;;;;4968842;28;20035;-61
2023/07/26 01:19:56;;;;;;;5.25;4.85;;;16.00;86.80;;;;;;4970937;28;20190;-62
2023/07/26 01:22:21;;;;;;;5.60;5.10;;;16.00;86.70;;;;;;4973717;28;20517;-62
2023/07/26 01:24:47;;;;;;;6.18;5.57;;;16.00;86.40;;;;;;4970690;28;20046;-62
2023/07/26 01:27:13;;;;;;;6.82;5.97;;;16.00;85.90;;;;;;4969680;28;20042;-62
2023/07/26 01:29:38;;;;;;;9.02;6.30;;;16.00;85.60;;;;;;4971167;28;20113;-62
2023/07/26 01:32:07;;;;;;;7.32;6.10;;;16.00;85.60;;;;;;4971349;28;20423;-61
2023/07/26 01:34:34;;;;;;;8.23;5.78;;;15.90;85.90;;;;;;4971607;28;20034;-62
2023/07/26 01:37:00;;;;;;;5.82;5.32;;;15.90;86.00;;;;;;4970232;28;20053;-61
2023/07/26 01:39:27;;;;;;;5.90;5.30;;;15.90;86.10;;;;;;4970773;28;20042;-62
2023/07/26 01:41:54;;;;;;;6.50;5.72;;;15.90;86.10;;;;;;4973555;28;20165;-62
2023/07/26 01:44:19;;;;;;;7.22;5.80;;;15.90;86.20;;;;;;4972649;28;20169;-62
2023/07/26 01:46:45;;;;;;;6.85;6.15;;;15.90;86.20;;;;;;4967870;28;20129;-62
2023/07/26 01:49:10;;;;;;;6.40;5.80;;;15.90;86.10;;;;;;4970440;28;20042;-62
2023/07/26 01:51:36;;;;;;;6.40;5.53;;;15.90;86.00;;;;;;4970659;28;20510;-63
2023/07/26 01:54:02;;;;;;;7.25;6.18;;;15.90;86.00;;;;;;4967211;28;20039;-62
2023/07/26 01:56:27;;;;;;;7.05;6.45;;;15.90;86.00;;;;;;4967278;28;20052;-63
2023/07/26 01:58:53;;;;;;;8.02;6.30;;;15.90;85.90;;;;;;4969413;28;20450;-62
2023/07/26 02:01:18;;;;;;;6.53;5.95;;;15.90;85.90;;;;;;4970267;28;20049;-60
2023/07/26 02:03:44;;;;;;;7.38;6.10;;;15.90;85.70;;;;;;4971384;28;20529;-62
2023/07/26 02:06:09;;;;;;;9.95;6.70;;;15.90;85.70;;;;;;4973601;28;20058;-61
2023/07/26 02:08:35;;;;;;;8.88;6.15;;;15.90;85.80;;;;;;4968992;28;20490;-60
2023/07/26 02:11:01;;;;;;;6.75;5.97;;;16.00;85.90;;;;;;4969633;28;20045;-62
2023/07/26 02:13:26;;;;;;;9.15;6.60;;;16.00;85.60;;;;;;4968342;28;20041;-62
2023/07/26 02:15:52;;;;;;;7.63;6.28;;;15.90;85.00;;;;;;4974469;28;20303;-61
2023/07/26 02:18:18;;;;;;;7.95;6.53;;;15.90;84.60;;;;;;4974890;28;20429;-61
2023/07/26 02:20:43;;;;;;;9.25;6.65;;;15.90;85.00;;;;;;4974698;28;20038;-62
2023/07/26 02:23:09;;;;;;;8.40;6.40;;;15.80;85.20;;;;;;4970852;28;20054;-62
2023/07/26 02:25:34;;;;;;;8.38;6.35;;;15.80;85.50;;;;;;4973474;28;20039;-62
2023/07/26 02:28:00;;;;;;;7.13;6.38;;;15.80;85.70;;;;;;4972235;28;20053;-60
2023/07/26 02:30:26;;;;;;;8.57;6.55;;;15.80;85.80;;;;;;4973140;28;20110;-62
2023/07/26 02:32:51;;;;;;;6.97;6.10;;;15.80;85.60;;;;;;4974342;28;20050;-62
2023/07/26 02:35:17;;;;;;;7.80;6.53;;;15.70;85.40;;;;;;4975241;28;20038;-62
2023/07/26 02:37:43;;;;;;;7.22;6.53;;;15.70;85.70;;;;;;4975092;28;20515;-62
2023/07/26 02:40:09;;;;;;;7.28;6.65;;;15.70;85.90;;;;;;4974879;28;20038;-62
2023/07/26 02:42:34;;;;;;;8.25;6.78;;;15.70;85.80;;;;;;4972284;28;20110;-62
2023/07/26 02:45:00;;;;;;;11.95;7.50;;;15.70;85.70;;;;;;4975903;28;20385;-62
2023/07/26 02:47:25;;;;;;;8.70;6.95;;;15.70;85.60;;;;;;4972568;28;20116;-62
2023/07/26 02:49:51;;;;;;;9.38;6.80;;;15.70;86.30;;;;;;4970348;28;20062;-62
2023/07/26 02:52:17;;;;;;;9.25;7.25;;;15.60;85.70;;;;;;4970605;28;20039;-62
2023/07/26 02:54:42;;;;;;;9.50;6.82;;;15.60;86.00;;;;;;4967477;28;20073;-62
2023/07/26 02:57:08;;;;;;;8.82;6.80;;;15.70;86.20;;;;;;4973068;28;20086;-62
2023/07/26 02:59:33;;;;;;;8.55;7.22;;;15.60;86.00;;;;;;4971951;28;20046;-62
2023/07/26 03:01:59;;;;;;;8.57;6.88;;;15.70;85.70;;;;;;4970878;28;20391;-62
2023/07/26 03:04:24;;;;;;;8.52;7.07;;;15.70;85.90;;;;;;4974881;28;20034;-61
2023/07/26 03:06:50;;;;;;;7.57;6.78;;;15.70;86.00;;;;;;4974213;28;20034;-62
2023/07/26 03:09:16;;;;;;;7.65;6.95;;;15.70;85.80;;;;;;4972002;28;20038;-62
2023/07/26 03:11:42;;;;;;;8.75;6.70;;;15.70;85.60;;;;;;4973402;28;20045;-62
2023/07/26 03:14:07;;;;;;;7.85;6.70;;;15.70;85.30;;;;;;4972604;28;20121;-61
2023/07/26 03:16:33;;;;;;;6.72;6.07;;;15.70;85.00;;;;;;4972151;28;20410;-61
2023/07/26 03:18:58;;;;;;;6.90;6.20;;;15.70;85.00;;;;;;4973952;28;20026;-62
2023/07/26 03:21:24;;;;;;;7.15;5.93;;;15.60;84.90;;;;;;4974292;28;20134;-61
2023/07/26 03:23:50;;;;;;;7.25;5.65;;;15.60;85.20;;;;;;4973127;28;20077;-62
2023/07/26 03:26:16;;;;;;;7.15;5.93;;;15.50;85.60;;;;;;4984767;28;20038;-62
2023/07/26 03:28:42;;;;;;;6.28;5.57;;;15.50;85.70;;;;;;4970986;28;20034;-61
2023/07/26 03:31:07;;;;;;;5.40;4.90;;;15.50;85.60;;;;;;4973886;28;20402;-63
2023/07/26 03:33:33;;;;;;;5.75;4.78;;;15.50;85.70;;;;;;4970840;28;20031;-63
2023/07/26 03:35:59;;;;;;;5.03;4.53;;;15.50;85.70;;;;;;4973867;28;20636;-63
2023/07/26 03:38:25;;;;;;;5.03;4.47;;;15.50;85.80;;;;;;4971129;28;20043;-63
2023/07/26 03:40:50;;;;;;;4.43;4.05;;;15.50;85.90;;;;;;4973102;28;20431;-63
2023/07/26 03:43:16;;;;;;;4.90;4.40;;;15.50;85.80;;;;;;4971413;28;20584;-63
2023/07/26 03:45:41;;;;;;;5.57;3.70;;;15.50;85.80;;;;;;4968880;28;20030;-63
2023/07/26 03:48:07;;;;;;;4.45;4.00;;;15.50;85.70;;;;;;4972674;28;20035;-63
2023/07/26 03:50:33;;;;;;;4.13;3.83;;;15.50;85.40;;;;;;4968422;28;20066;-63
2023/07/26 03:52:58;;;;;;;6.07;4.00;;;15.50;85.40;;;;;;4969371;28;20265;-63
2023/07/26 03:55:24;;;;;;;4.50;3.70;;;15.40;85.00;;;;;;4967808;28;20043;-63
2023/07/26 03:57:50;;;;;;;3.60;3.33;;;15.40;85.00;;;;;;4967610;28;20121;-63
2023/07/26 04:00:15;;;;;;;3.72;2.97;;;15.40;85.20;;;;;;4968873;28;20402;-63
2023/07/26 04:02:42;;;;;;;2.95;2.65;;;15.30;85.30;;;;;;4974033;28;20104;-62
2023/07/26 04:05:07;;;;;;;3.22;2.88;;;15.30;86.20;;;;;;4969660;28;20038;-63
2023/07/26 04:07:38;;;;;;;3.65;2.65;;;15.30;85.30;;;;;;4972698;28;20088;-63
2023/07/26 04:10:04;;;;;;;3.72;2.80;;;15.30;85.30;;;;;;4970728;28;20399;-62
2023/07/26 04:12:29;;;;;;;3.20;2.97;;;15.30;85.30;;;;;;4968641;28;20046;-62
2023/07/26 04:14:55;;;;;;;4.38;3.00;;;15.20;85.30;;;;;;4972936;28;20038;-63
2023/07/26 04:17:20;;;;;;;4.30;2.90;;;15.20;85.30;;;;;;4972609;28;20046;-62
2023/07/26 04:19:46;;;;;;;2.88;2.53;;;15.30;85.40;;;;;;4969832;28;20043;-63
2023/07/26 04:22:11;;;;;;;3.70;2.60;;;15.30;85.40;;;;;;4974557;28;20066;-63
2023/07/26 04:24:46;;;;;;;2.70;2.50;;;15.30;85.30;;;;;;4972169;28;20517;-63
2023/07/26 04:27:11;;;;;;;2.25;2.15;;;15.30;85.20;;;;;;4970076;28;20035;-63
2023/07/26 04:29:37;;;;;;;2.42;2.22;;;15.20;85.10;;;;;;4973239;28;20101;-64
2023/07/26 04:32:03;;;;;;;2.38;1.90;;;15.20;85.20;;;;;;4969340;28;20122;-62
2023/07/26 04:34:29;;;;;;;2.08;1.98;;;15.20;85.00;;;;;;4969837;28;20381;-63
2023/07/26 04:36:54;;;;;;;1.73;1.60;;;15.20;85.00;;;;;;4974921;28;20047;-63
2023/07/26 04:39:20;;;;;;;1.55;1.45;;;15.20;84.80;;;;;;4972948;28;20065;-62
2023/07/26 04:41:46;;;;;;;2.03;1.60;;;15.20;84.80;;;;;;4974761;28;20030;-62
2023/07/26 04:44:11;;;;;;;1.90;1.80;;;15.20;84.90;;;;;;4974648;28;20484;-64
2023/07/26 04:46:37;;;;;;;1.48;1.38;;;15.20;84.80;;;;;;4972779;28;20081;-63
2023/07/26 04:49:02;;;;;;;1.88;1.60;;;15.10;84.70;;;;;;4972154;28;20085;-63
2023/07/26 04:51:28;;;;;;;2.22;1.35;;;15.20;84.90;;;;;;4974762;28;20042;-63
2023/07/26 04:53:53;;;;;;;1.52;1.42;;;15.10;84.80;;;;;;4974664;28;20495;-63
2023/07/26 04:56:19;;;;;;;3.17;1.50;;;15.10;84.80;;;;;;4974699;28;20042;-63
2023/07/26 04:58:44;;;;;;;2.15;1.23;;;15.10;84.80;;;;;;4975148;28;20027;-62
2023/07/26 05:01:10;;;;;;;1.58;1.40;;;15.10;84.60;;;;;;4974005;28;20452;-62
2023/07/26 05:03:39;;;;;;;1.48;1.30;;;15.10;84.50;;;;;;4975414;28;20131;-62
2023/07/26 05:06:04;;;;;;;1.30;1.20;;;15.10;84.50;;;;;;4973956;28;20037;-62
2023/07/26 05:08:30;;;;;;;1.83;1.17;;;15.10;84.40;;;;;;4973169;28;20323;-62
2023/07/26 05:10:56;;;;;;;2.08;1.48;;;15.10;84.80;;;;;;4977045;28;21029;-62
2023/07/26 05:13:23;;;;;;;2.85;1.60;;;15.00;84.80;;;;;;4974380;28;20126;-63
2023/07/26 05:15:48;;;;;;;1.83;1.25;;;15.10;85.00;;;;;;4974343;28;20035;-61
2023/07/26 05:18:14;;;;;;;1.60;1.40;;;15.10;85.10;;;;;;4975041;28;20589;-62
2023/07/26 05:20:41;;;;;;;1.27;1.17;;;15.10;85.10;;;;;;4972779;28;20034;-62
2023/07/26 05:23:06;;;;;;;1.90;1.50;;;15.10;85.20;;;;;;4975559;28;20035;-63
2023/07/26 05:25:32;;;;;;;1.55;1.20;;;15.10;85.00;;;;;;4973156;28;20093;-62
2023/07/26 05:27:58;;;;;;;1.42;1.27;;;15.10;84.90;;;;;;4974527;28;20038;-61
2023/07/26 05:30:23;;;;;;;2.38;1.70;;;15.20;85.00;;;;;;4973584;28;20034;-62
2023/07/26 05:32:49;;;;;;;2.20;1.90;;;15.20;85.10;;;;;;4973453;28;20030;-62
2023/07/26 05:35:14;;;;;;;3.75;1.88;;;15.10;85.00;;;;;;4975231;28;20290;-63
2023/07/26 05:37:40;;;;;;;4.85;1.60;;;15.10;85.00;;;;;;4973532;28;20050;-63
2023/07/26 05:40:06;;;;;;;1.20;1.10;;;15.00;84.90;;;;;;4971259;28;20064;-62
2023/07/26 05:42:32;;;;;;;2.55;1.10;;;14.90;84.20;;;;;;4973123;28;20133;-62
2023/07/26 05:44:58;;;;;;;1.27;1.17;;;14.90;84.30;;;;;;4974027;28;20034;-63
2023/07/26 05:47:24;;;;;;;1.40;1.30;;;14.80;84.70;;;;;;4973491;28;20105;-62
2023/07/26 05:49:50;;;;;;;1.52;1.10;;;14.70;84.80;;;;;;4972829;28;20126;-62
2023/07/26 05:52:15;;;;;;;1.25;1.05;;;14.70;85.00;;;;;;4974116;28;20046;-62
2023/07/26 05:54:41;;;;;;;1.30;1.20;;;14.70;84.80;;;;;;4971667;28;20062;-61
2023/07/26 05:57:07;;;;;;;1.15;0.95;;;14.70;85.00;;;;;;4973340;28;20121;-61
2023/07/26 05:59:34;;;;;;;1.23;1.00;;;14.70;85.30;;;;;;4972449;28;20039;-62
2023/07/26 06:02:03;;;;;;;1.25;1.00;;;14.70;85.20;;;;;;4974667;28;20050;-63
2023/07/26 06:04:28;;;;;;;1.38;1.02;;;14.70;85.30;;;;;;4973653;28;20708;-62
2023/07/26 06:06:55;;;;;;;1.33;1.10;;;14.70;85.40;;;;;;4975507;28;20373;-62
2023/07/26 06:09:22;;;;;;;2.65;1.05;;;14.80;85.40;;;;;;4973883;28;20046;-62
2023/07/26 06:11:47;;;;;;;2.63;1.30;;;14.80;85.20;;;;;;4973657;28;20584;-63
2023/07/26 06:14:13;;;;;;;2.15;1.25;;;14.80;85.10;;;;;;4972724;28;20585;-63
2023/07/26 06:16:39;;;;;;;2.63;1.30;;;14.80;86.10;;;;;;4973346;28;20045;-62
2023/07/26 06:19:04;;;;;;;2.33;1.40;;;14.80;85.50;;;;;;4976273;28;20038;-63
2023/07/26 06:21:30;;;;;;;1.15;0.80;;;14.80;85.60;;;;;;4975483;28;20027;-63
2023/07/26 06:23:56;;;;;;;1.23;1.00;;;14.90;85.50;;;;;;4976095;28;20038;-63
2023/07/26 06:26:21;;;;;;;1.30;1.10;;;14.80;85.30;;;;;;4975809;28;20490;-63
2023/07/26 06:28:47;;;;;;;2.53;1.00;;;14.90;85.30;;;;;;4973888;28;20177;-63
2023/07/26 06:31:13;;;;;;;1.35;1.17;;;14.90;85.40;;;;;;4973136;28;20035;-63
2023/07/26 06:33:38;;;;;;;1.23;1.15;;;14.90;85.50;;;;;;4974544;28;20031;-63
2023/07/26 06:36:04;;;;;;;1.50;1.40;;;15.00;85.70;;;;;;4974726;28;20430;-63
2023/07/26 06:38:29;;;;;;;1.33;1.23;;;15.00;85.90;;;;;;4974157;28;20046;-62
2023/07/26 06:40:57;;;;;;;2.30;1.35;;;15.00;86.10;;;;;;4973594;28;20287;-61
2023/07/26 06:43:23;;;;;;;1.77;1.60;;;15.10;86.40;;;;;;4977520;28;20034;-62
2023/07/26 06:48:24;;;;;;;1.77;1.67;;;15.20;86.20;;;;;;5267157;23;20055;-63
2023/07/26 06:50:49;;;;;;;2.20;2.00;;;15.30;86.20;;;;;;4962470;28;20074;-63
2023/07/26 06:53:15;;;;;;;2.58;2.38;;;15.30;86.20;;;;;;4965659;28;20326;-62
2023/07/26 06:55:41;;;;;;;2.72;2.22;;;15.30;86.50;;;;;;4966660;28;20126;-62
2023/07/26 06:58:06;;;;;;;3.47;2.80;;;15.30;86.60;;;;;;4948605;28;20331;-62
2023/07/26 07:00:32;;;;;;;2.83;2.60;;;15.40;86.70;;;;;;4938377;28;20494;-63
2023/07/26 07:03:01;;;;;;;4.82;3.60;;;15.40;86.90;;;;;;4941176;29;20039;-63
2023/07/26 07:05:35;;;;;;;3.97;3.42;;;15.50;87.20;;;;;;4942380;28;20074;-63
2023/07/26 07:08:00;;;;;;;4.40;3.67;;;15.50;87.30;;;;;;4941584;28;20067;-61
2023/07/26 07:10:26;;;;;;;4.57;3.70;;;15.50;87.10;;;;;;4947097;28;20035;-62
2023/07/26 07:12:51;;;;;;;8.52;3.95;;;15.60;87.10;;;;;;4942498;28;20353;-63
2023/07/26 07:15:17;;;;;;;5.30;3.75;;;15.60;87.10;;;;;;4941862;29;20686;-63
2023/07/26 07:17:43;;;;;;;3.95;3.55;;;15.70;87.00;;;;;;4941248;28;20408;-63
2023/07/26 07:20:09;;;;;;;7.18;3.90;;;15.70;86.80;;;;;;4941431;29;20047;-62
2023/07/26 07:22:35;;;;;;;4.55;3.72;;;15.70;86.70;;;;;;4941523;28;20496;-63
2023/07/26 07:25:01;;;;;;;4.25;3.50;;;15.70;86.60;;;;;;4940925;28;20031;-61
2023/07/26 07:27:27;;;;;;;4.30;3.65;;;15.70;86.50;;;;;;4941258;29;20047;-62
2023/07/26 07:29:52;;;;;;;4.18;3.42;;;15.80;86.80;;;;;;4941828;28;20054;-62
2023/07/26 07:32:18;;;;;;;4.20;3.65;;;15.70;86.90;;;;;;4941725;29;20131;-61
2023/07/26 07:34:45;;;;;;;4.88;3.65;;;15.80;86.90;;;;;;4942115;28;20039;-61
2023/07/26 07:37:10;;;;;;;4.88;3.58;;;15.80;87.20;;;;;;4941080;28;20053;-60
2023/07/26 07:39:36;;;;;;;3.78;3.40;;;15.80;87.30;;;;;;4941494;29;20036;-61
2023/07/26 07:42:02;;;;;;;5.15;3.78;;;15.90;87.30;;;;;;4941474;28;20126;-62
2023/07/26 07:44:28;;;;;;;4.18;3.78;;;15.90;87.60;;;;;;4940910;28;20043;-62
2023/07/26 07:46:54;;;;;;;3.83;3.53;;;16.00;87.80;;;;;;4940059;28;20106;-62
2023/07/26 07:49:19;;;;;;;3.65;3.35;;;16.10;87.30;;;;;;4940900;28;20099;-61
2023/07/26 07:51:45;;;;;;;5.30;3.70;;;16.10;87.80;;;;;;4941571;29;20036;-61
2023/07/26 07:54:11;;;;;;;3.88;3.47;;;16.10;86.90;;;;;;4940604;28;20406;-61
2023/07/26 07:56:37;;;;;;;7.65;3.45;;;16.20;86.90;;;;;;4940612;28;20321;-61
2023/07/26 07:59:03;;;;;;;5.65;3.28;;;16.30;86.90;;;;;;4940658;28;20641;-61
2023/07/26 08:01:28;;;;;;;6.45;3.42;;;16.30;86.50;;;;;;4939150;28;20411;-61
2023/07/26 08:03:54;;;;;;;4.35;3.20;;;16.40;86.40;;;;;;4923515;28;20564;-60
2023/07/26 08:06:19;;;;;;;3.17;2.80;;;16.50;86.00;;;;;;4942999;28;20024;-61
2023/07/26 08:08:45;;;;;;;3.17;2.70;;;16.50;86.20;;;;;;4941363;28;20532;-59
2023/07/26 08:11:11;;;;;;;3.58;2.88;;;16.50;85.30;;;;;;4944186;28;20034;-58
2023/07/26 08:13:36;;;;;;;3.97;3.20;;;16.60;85.20;;;;;;4942251;28;20131;-60
2023/07/26 08:16:02;;;;;;;4.45;2.95;;;16.70;85.00;;;;;;4943189;28;20066;-59
2023/07/26 08:18:28;;;;;;;3.60;3.03;;;16.70;85.10;;;;;;4940291;28;20073;-60
2023/07/26 08:20:54;;;;;;;3.17;2.88;;;16.80;84.60;;;;;;4943408;28;20039;-59
2023/07/26 08:23:19;;;;;;;3.50;3.17;;;16.80;84.70;;;;;;4941803;28;20498;-60
2023/07/26 08:25:45;;;;;;;4.10;2.92;;;16.90;84.20;;;;;;4943394;28;20050;-61
2023/07/26 08:28:11;;;;;;;6.45;2.90;;;17.00;84.30;;;;;;4941326;28;20048;-59
2023/07/26 08:30:37;;;;;;;8.60;3.00;;;17.10;84.00;;;;;;4941527;28;20038;-59
2023/07/26 08:33:03;;;;;;;5.03;2.58;;;17.20;83.40;;;;;;4940914;28;20063;-60
2023/07/26 08:35:29;;;;;;;3.90;2.65;;;17.20;82.60;;;;;;4941889;28;20075;-57
2023/07/26 08:37:55;;;;;;;4.35;2.78;;;17.20;82.20;;;;;;4941380;28;20036;-61
2023/07/26 08:40:21;;;;;;;2.70;2.50;;;17.20;82.00;;;;;;4941715;28;20070;-60
2023/07/26 08:42:46;;;;;;;4.05;2.80;;;17.20;82.00;;;;;;4941192;28;20054;-58
2023/07/26 08:45:12;;;;;;;6.20;2.80;;;17.20;81.50;;;;;;4942580;28;20035;-60
2023/07/26 08:47:38;;;;;;;5.93;4.13;;;17.20;81.50;;;;;;4941022;28;20387;-59
2023/07/26 08:50:05;;;;;;;5.32;4.72;;;17.20;81.50;;;;;;4941856;28;20510;-61
2023/07/26 08:52:32;;;;;;;8.85;5.32;;;17.20;81.50;;;;;;4940582;28;20681;-59
2023/07/26 08:54:59;;;;;;;9.68;6.40;;;17.20;81.50;;;;;;4941190;28;20126;-61
2023/07/26 08:57:25;;;;;;;5.88;4.07;;;17.20;81.70;;;;;;4941764;28;20090;-57
2023/07/26 08:59:51;;;;;;;3.65;3.33;;;17.10;81.50;;;;;;4941206;28;20039;-61
2023/07/26 09:02:19;;;;;;;5.45;3.35;;;17.20;82.20;;;;;;4940701;28;20046;-60
2023/07/26 09:04:46;;;;;;;3.92;3.10;;;17.20;82.20;;;;;;4940858;28;20175;-61
2023/07/26 09:07:12;;;;;;;3.00;2.70;;;17.20;82.50;;;;;;4939806;28;20067;-59
2023/07/26 09:09:38;;;;;;;5.30;2.58;;;17.30;82.70;;;;;;4941431;28;20102;-59
2023/07/26 09:12:04;;;;;;;4.45;2.47;;;17.30;82.60;;;;;;4943666;28;20031;-60
2023/07/26 09:14:32;;;;;;;2.97;2.67;;;17.40;82.60;;;;;;4941186;28;20563;-59
2023/07/26 09:17:00;;;;;;;2.83;2.60;;;17.40;82.50;;;;;;4940975;28;20062;-57
2023/07/26 09:19:30;;;;;;;4.55;2.75;;;17.50;81.30;;;;;;4940335;28;20043;-60
2023/07/26 09:22:00;;;;;;;3.78;2.70;;;17.50;81.60;;;;;;4942023;28;20032;-60
2023/07/26 09:24:33;;;;;;;4.32;2.28;;;17.60;81.00;;;;;;4940735;28;20514;-60
2023/07/26 09:27:09;;;;;;;2.60;2.30;;;17.60;80.00;;;;;;4941324;28;20043;-61
2023/07/26 09:29:36;;;;;;;3.40;2.45;;;17.70;80.20;;;;;;4941141;28;20468;-59
2023/07/26 09:32:02;;;;;;;3.10;2.25;;;17.70;80.80;;;;;;4940275;28;20127;-59
2023/07/26 09:34:30;;;;;;;2.97;2.30;;;17.80;80.30;;;;;;4939502;28;20134;-60
2023/07/26 09:36:57;;;;;;;2.15;2.03;;;17.80;79.60;;;;;;4940671;28;20458;-60
2023/07/26 09:39:27;;;;;;;3.03;2.22;;;17.80;79.00;;;;;;4939627;29;20049;-58
2023/07/26 09:42:07;;;;;;;2.90;1.88;;;17.90;79.10;;;;;;4941440;28;20443;-59
2023/07/26 09:44:33;;;;;;;1.88;1.70;;;18.00;78.20;;;;;;4939963;28;20043;-59
2023/07/26 09:46:59;;;;;;;3.30;1.92;;;18.00;78.80;;;;;;4939706;28;20161;-58
2023/07/26 09:49:32;;;;;;;2.15;1.80;;;18.10;77.70;;;;;;4941379;28;20537;-58
2023/07/26 09:51:59;;;;;;;8.35;2.20;;;18.10;78.40;;;;;;4940742;29;20046;-58
2023/07/26 09:54:34;;;;;;;4.68;2.22;;;18.20;76.30;;;;;;4939089;28;20040;-60
2023/07/26 09:57:00;;;;;;;2.50;1.80;;;18.20;74.90;;;;;;4939760;28;20035;-60
2023/07/26 09:59:28;;;;;;;2.97;1.90;;;18.30;76.20;;;;;;4940554;28;20039;-60
2023/07/26 10:01:55;;;;;;;1.95;1.85;;;18.30;76.10;;;;;;4940549;28;20058;-59
2023/07/26 10:04:39;;;;;;;4.20;2.20;;;18.40;75.80;;;;;;4938095;28;20091;-58
2023/07/26 10:07:10;;;;;;;2.63;2.10;;;18.50;74.60;;;;;;4940133;28;20118;-57
2023/07/26 10:09:43;;;;;;;2.58;2.10;;;18.50;75.70;;;;;;4942595;28;20043;-58
2023/07/26 10:12:09;;;;;;;4.28;2.38;;;18.60;75.20;;;;;;4942366;28;20038;-58
2023/07/26 10:14:36;;;;;;;1.77;1.67;;;18.60;75.20;;;;;;4940869;28;20537;-59
2023/07/26 10:17:04;;;;;;;4.60;1.77;;;18.60;75.50;;;;;;4939197;28;20048;-61
2023/07/26 10:19:30;;;;;;;4.68;2.00;;;18.60;75.30;;;;;;4939378;28;20039;-60
2023/07/26 10:21:57;;;;;;;2.65;1.52;;;18.70;74.40;;;;;;4940822;28;20495;-60
2023/07/26 10:24:23;;;;;;;3.20;2.00;;;18.80;74.00;;;;;;4940573;28;20117;-60
2023/07/26 10:26:50;;;;;;;2.60;1.90;;;18.80;73.70;;;;;;4939105;28;20035;-60
2023/07/26 10:29:17;;;;;;;2.42;1.80;;;18.80;72.80;;;;;;4940500;28;20035;-60
2023/07/26 10:31:44;;;;;;;2.85;1.95;;;18.80;72.40;;;;;;4940973;29;20067;-59
2023/07/26 10:34:17;;;;;;;2.38;1.85;;;18.80;72.20;;;;;;4941080;28;20062;-58
2023/07/26 10:36:43;;;;;;;3.92;2.13;;;18.80;72.40;;;;;;4944809;28;20039;-59
2023/07/26 10:39:09;;;;;;;2.58;1.88;;;18.70;72.00;;;;;;4943585;28;20048;-59
2023/07/26 10:41:35;;;;;;;5.85;1.80;;;18.70;72.30;;;;;;4944187;28;20487;-59
2023/07/26 10:44:08;;;;;;;3.75;1.80;;;18.70;71.90;;;;;;4943363;28;20043;-60
2023/07/26 10:47:03;;;;;;;1.95;1.40;;;18.70;71.60;;;;;;4943164;28;20035;-60
2023/07/26 10:49:30;;;;;;;1.63;1.52;;;18.80;70.90;;;;;;4943982;28;20043;-59
2023/07/26 10:52:04;;;;;;;1.48;1.30;;;18.80;72.50;;;;;;4942910;28;20538;-61
2023/07/26 10:54:43;;;;;;;3.90;1.43;;;18.80;71.20;;;;;;4943263;28;20032;-59
2023/07/26 10:57:26;;;;;;;0.95;0.90;;;18.80;70.00;;;;;;4943613;28;20287;-57
2023/07/26 11:00:06;;;;;;;1.55;0.90;;;18.80;68.40;;;;;;4943156;28;20046;-59
2023/07/26 11:02:42;;;;;;;2.17;1.13;;;18.80;67.60;;;;;;4943509;28;20039;-59
2023/07/26 11:05:13;;;;;;;1.63;0.95;;;18.80;67.20;;;;;;4944088;28;20127;-61
2023/07/26 11:08:03;;;;;;;1.13;0.70;;;18.70;67.80;;;;;;4943188;28;20031;-60
2023/07/26 11:10:35;;;;;;;1.17;0.80;;;18.50;64.50;;;;;;4944720;28;20122;-61
2023/07/26 11:13:26;;;;;;;0.82;0.65;;;18.30;64.70;;;;;;4942740;28;20032;-60
2023/07/26 11:15:52;;;;;;;1.27;0.98;;;18.00;66.40;;;;;;4942068;28;20036;-58
2023/07/26 11:18:19;;;;;;;1.23;0.80;;;17.80;67.80;;;;;;4942484;28;20098;-60
2023/07/26 11:20:47;;;;;;;0.65;0.60;;;17.60;68.30;;;;;;4942731;28;20039;-62
2023/07/26 11:23:29;;;;;;;1.00;0.88;;;17.40;68.00;;;;;;4942660;28;20039;-59
2023/07/26 11:25:57;;;;;;;1.00;0.60;;;17.10;67.40;;;;;;4944473;28;20046;-60
2023/07/26 11:28:27;;;;;;;0.88;0.60;;;16.90;67.60;;;;;;4942235;28;20071;-62
2023/07/26 11:30:54;;;;;;;1.33;0.88;;;16.70;67.60;;;;;;4943911;28;20039;-62
2023/07/26 11:33:27;;;;;;;1.30;0.80;;;16.40;69.50;;;;;;4942741;28;20518;-63
2023/07/26 11:35:52;;;;;;;2.13;0.85;;;16.10;71.10;;;;;;4942775;28;20039;-62
2023/07/26 11:38:18;;;;;;;2.50;0.70;;;15.90;71.80;;;;;;4943270;28;20039;-61
2023/07/26 11:40:44;;;;;;;1.25;0.82;;;15.60;73.20;;;;;;4942462;28;20035;-61
2023/07/26 11:43:10;;;;;;;1.42;0.88;;;15.40;75.30;;;;;;4942195;28;20123;-62
2023/07/26 11:45:37;;;;;;;1.30;0.93;;;15.30;76.80;;;;;;4942908;28;20040;-62
2023/07/26 11:48:09;;;;;;;0.70;0.70;;;15.20;78.70;;;;;;4942523;28;20027;-62
2023/07/26 11:50:35;;;;;;;2.03;0.90;;;15.20;78.70;;;;;;4942568;28;20109;-62
2023/07/26 11:53:07;;;;;;;0.80;0.70;;;15.20;79.20;;;;;;4943158;28;20035;-60
2023/07/26 11:55:34;;;;;;;0.98;0.93;;;15.20;80.10;;;;;;4942888;28;20303;-62
2023/07/26 11:58:03;;;;;;;1.35;1.05;;;15.20;80.70;;;;;;4941520;28;20577;-63
2023/07/26 12:00:34;;;;;;;1.05;0.75;;;15.30;81.30;;;;;;4941725;28;20066;-63
2023/07/26 12:03:04;;;;;;;1.58;0.88;;;15.30;81.10;;;;;;4942952;28;20043;-63
2023/07/26 12:05:30;;;;;;;1.00;0.80;;;15.40;81.10;;;;;;4943106;28;20475;-63
2023/07/26 12:07:59;;;;;;;1.30;0.98;;;15.50;81.20;;;;;;4942715;28;20470;-63
2023/07/26 12:10:34;;;;;;;1.88;1.00;;;15.50;81.30;;;;;;4944262;28;20046;-62
2023/07/26 12:13:01;;;;;;;6.70;3.78;;;15.60;81.50;;;;;;4941780;28;20110;-62
2023/07/26 12:15:27;;;;;;;3.97;2.72;;;15.60;81.20;;;;;;4942590;28;20046;-61
2023/07/26 12:18:01;;;;;;;2.20;1.40;;;15.60;81.20;;;;;;4943405;28;20043;-61
2023/07/26 12:20:29;;;;;;;2.03;1.30;;;15.60;81.50;;;;;;4942089;28;20110;-63
2023/07/26 12:22:57;;;;;;;1.15;0.90;;;15.60;81.40;;;;;;4942894;29;20517;-62
2023/07/26 12:25:36;;;;;;;0.95;0.75;;;15.60;81.50;;;;;;4943549;28;20123;-62
2023/07/26 12:28:06;;;;;;;1.15;0.95;;;15.60;82.30;;;;;;4943100;28;20134;-62
2023/07/26 12:30:31;;;;;;;2.13;0.80;;;15.60;81.90;;;;;;4941391;28;20047;-62
2023/07/26 12:33:11;;;;;;;1.10;1.00;;;15.60;82.20;;;;;;4942399;28;20044;-62
2023/07/26 12:35:38;;;;;;;1.70;1.10;;;15.60;83.70;;;;;;4940270;28;20036;-62
2023/07/26 12:38:12;;;;;;;1.15;1.05;;;15.60;83.30;;;;;;4941393;28;20038;-60
2023/07/26 12:40:39;;;;;;;0.90;0.73;;;15.70;84.00;;;;;;4940688;28;20443;-62
2023/07/26 12:43:27;;;;;;;1.08;0.90;;;15.80;84.00;;;;;;4941258;28;20031;-61
2023/07/26 12:45:54;;;;;;;0.82;0.80;;;15.90;86.50;;;;;;4941823;28;20035;-62
2023/07/26 12:48:22;;;;;;;1.23;1.13;;;15.90;85.10;;;;;;4940768;28;20054;-62
2023/07/26 12:50:49;;;;;;;0.95;0.93;;;16.00;85.60;;;;;;4942203;28;20039;-61